Time;durP1;ratioP1;P1;durP2;ratioP2;P2;SDS_P1;SDS_P2;PMS_P1;PMS_P2;Temp;Humidity;BMP_temperature;BMP_pressure;BME280_temperature;BME280_humidity;BME280_pressure;Samples;Min_cycle;Max_cycle;Signal;HPM_P1;HPM_P2
2023/10/26 00:01:23;;;;;;;4.68;1.20;;;17.10;96.70;;;;;;5001678;28;20046;-78
2023/10/26 00:03:53;;;;;;;3.72;1.52;;;17.10;96.70;;;;;;4992790;28;20042;-81
2023/10/26 00:06:21;;;;;;;3.75;1.02;;;17.10;96.70;;;;;;5006352;28;20054;-80
2023/10/26 00:08:49;;;;;;;2.65;1.25;;;17.10;96.70;;;;;;5005335;28;20048;-81
2023/10/26 00:11:17;;;;;;;3.88;1.10;;;17.10;96.70;;;;;;5007732;28;20049;-81
2023/10/26 00:13:45;;;;;;;3.80;1.30;;;17.10;96.70;;;;;;5005937;28;20077;-80
2023/10/26 00:16:13;;;;;;;2.88;1.08;;;17.10;96.70;;;;;;5006323;28;20068;-81
2023/10/26 00:18:41;;;;;;;4.78;1.40;;;17.10;96.70;;;;;;5004401;28;20068;-80
2023/10/26 00:21:11;;;;;;;2.55;1.10;;;17.20;96.70;;;;;;5005121;28;20475;-79
2023/10/26 00:23:39;;;;;;;2.78;0.98;;;17.20;96.70;;;;;;5004511;28;20557;-80
2023/10/26 00:26:07;;;;;;;2.17;1.00;;;17.20;96.70;;;;;;5005203;28;20392;-80
2023/10/26 00:28:36;;;;;;;3.88;1.20;;;17.20;96.70;;;;;;5004182;28;20046;-80
2023/10/26 00:31:04;;;;;;;4.20;1.08;;;17.10;96.70;;;;;;5005715;28;20042;-80
2023/10/26 00:33:32;;;;;;;2.05;0.90;;;17.10;96.70;;;;;;5005948;28;20179;-81
2023/10/26 00:36:00;;;;;;;3.83;1.38;;;17.10;96.70;;;;;;5004920;28;20057;-80
2023/10/26 00:38:30;;;;;;;5.03;1.48;;;17.10;96.70;;;;;;5004502;28;20046;-81
2023/10/26 00:40:58;;;;;;;3.78;1.60;;;17.10;96.70;;;;;;5004651;28;20054;-81
2023/10/26 00:43:26;;;;;;;3.72;1.20;;;17.10;96.70;;;;;;4990394;28;20042;-80
2023/10/26 00:45:54;;;;;;;2.88;1.42;;;17.10;96.70;;;;;;5004446;28;20048;-81
2023/10/26 00:48:23;;;;;;;2.88;1.13;;;17.10;96.70;;;;;;4999437;28;20101;-81
2023/10/26 00:50:52;;;;;;;4.07;1.00;;;17.10;96.70;;;;;;5005334;28;20092;-81
2023/10/26 00:53:21;;;;;;;4.78;0.98;;;17.10;96.70;;;;;;5004868;28;20049;-81
2023/10/26 00:55:52;;;;;;;3.38;1.00;;;17.10;96.70;;;;;;5004551;28;20042;-81
2023/10/26 00:58:21;;;;;;;5.60;1.00;;;17.10;96.70;;;;;;5004439;28;20149;-81
2023/10/26 01:00:50;;;;;;;6.72;1.10;;;17.10;96.70;;;;;;5006895;28;20049;-81
2023/10/26 01:03:19;;;;;;;6.60;1.00;;;17.10;96.70;;;;;;5004785;28;20038;-81
2023/10/26 01:05:47;;;;;;;8.73;1.10;;;17.10;96.70;;;;;;5011192;28;20049;-80
2023/10/26 01:08:16;;;;;;;2.72;0.70;;;17.10;96.70;;;;;;5004190;28;20092;-81
2023/10/26 01:10:44;;;;;;;5.65;1.60;;;17.20;96.70;;;;;;5004474;28;20054;-81
2023/10/26 01:13:15;;;;;;;5.47;1.10;;;17.20;96.70;;;;;;4988080;28;20164;-81
2023/10/26 01:15:43;;;;;;;4.63;1.00;;;17.20;96.70;;;;;;5004217;28;20058;-81
2023/10/26 01:18:11;;;;;;;6.07;1.10;;;17.20;96.70;;;;;;5017961;28;20045;-80
2023/10/26 01:20:41;;;;;;;10.05;1.63;;;17.20;96.70;;;;;;5015903;28;20563;-81
2023/10/26 01:23:11;;;;;;;9.98;1.42;;;17.30;96.70;;;;;;5004287;28;20129;-81
2023/10/26 01:25:39;;;;;;;4.68;1.02;;;17.30;96.70;;;;;;5003779;28;20074;-82
2023/10/26 01:28:08;;;;;;;7.85;1.60;;;17.30;96.70;;;;;;5004195;28;20045;-81
2023/10/26 01:30:40;;;;;;;10.63;1.30;;;17.40;96.70;;;;;;5004340;28;20491;-81
2023/10/26 01:33:08;;;;;;;8.82;1.35;;;17.40;96.70;;;;;;5005460;28;20092;-79
2023/10/26 01:35:46;;;;;;;11.70;1.95;;;17.40;96.70;;;;;;5002961;28;20045;-78
2023/10/26 01:38:15;;;;;;;8.32;1.77;;;17.40;96.70;;;;;;5003402;28;20049;-78
2023/10/26 01:40:44;;;;;;;11.93;1.92;;;17.40;96.70;;;;;;5003185;28;20112;-78
2023/10/26 01:43:11;;;;;;;12.18;2.05;;;17.40;96.70;;;;;;5015988;28;20053;-77
2023/10/26 01:45:40;;;;;;;7.65;1.48;;;17.40;96.70;;;;;;5015552;28;20053;-78
2023/10/26 01:48:08;;;;;;;8.10;1.42;;;17.40;96.70;;;;;;5010470;28;20050;-76
2023/10/26 01:50:36;;;;;;;7.15;1.85;;;17.50;96.70;;;;;;5020607;28;20057;-77
2023/10/26 01:53:06;;;;;;;11.60;2.05;;;17.50;96.70;;;;;;4996230;28;20057;-78
2023/10/26 01:55:36;;;;;;;9.85;1.58;;;17.50;96.70;;;;;;5011823;28;20084;-77
2023/10/26 01:58:04;;;;;;;13.77;2.33;;;17.50;96.70;;;;;;5006228;28;20149;-77
2023/10/26 02:00:32;;;;;;;11.85;1.60;;;17.60;96.70;;;;;;5005009;28;20192;-79
2023/10/26 02:03:00;;;;;;;13.98;2.05;;;17.60;96.70;;;;;;5008885;28;20084;-79
2023/10/26 02:05:28;;;;;;;11.93;2.40;;;17.60;96.70;;;;;;5002067;28;20069;-78
2023/10/26 02:07:56;;;;;;;12.40;1.70;;;17.60;96.70;;;;;;5011343;28;20050;-79
2023/10/26 02:10:29;;;;;;;9.93;1.50;;;17.60;96.70;;;;;;4994377;28;20128;-78
2023/10/26 02:12:58;;;;;;;7.82;1.88;;;17.70;96.70;;;;;;5007427;28;20053;-79
2023/10/26 02:15:27;;;;;;;6.95;1.80;;;17.70;96.70;;;;;;5006518;28;20073;-80
2023/10/26 02:17:55;;;;;;;8.63;2.13;;;17.70;96.70;;;;;;5006564;28;20748;-80
2023/10/26 02:20:23;;;;;;;8.60;1.30;;;17.70;96.70;;;;;;5006198;28;20042;-79
2023/10/26 02:22:51;;;;;;;8.65;1.70;;;17.70;96.70;;;;;;5007965;28;20042;-79
2023/10/26 02:25:20;;;;;;;8.73;2.03;;;17.70;96.70;;;;;;5006279;28;20049;-80
2023/10/26 02:27:48;;;;;;;7.30;1.27;;;17.70;96.70;;;;;;5006175;28;20061;-79
2023/10/26 02:30:18;;;;;;;5.88;1.40;;;17.70;96.70;;;;;;4990013;28;20100;-79
2023/10/26 02:32:46;;;;;;;5.75;1.23;;;17.70;96.70;;;;;;5001149;28;20057;-79
2023/10/26 02:35:15;;;;;;;7.75;1.60;;;17.70;96.70;;;;;;5004858;28;20042;-80
2023/10/26 02:37:43;;;;;;;7.35;1.73;;;17.80;96.70;;;;;;5003475;28;20089;-79
2023/10/26 02:40:11;;;;;;;5.05;1.25;;;17.80;96.70;;;;;;5013491;28;20036;-79
2023/10/26 02:42:40;;;;;;;8.43;1.13;;;17.80;96.70;;;;;;5009635;28;20048;-78
2023/10/26 02:45:09;;;;;;;11.60;1.98;;;17.80;96.70;;;;;;4998895;28;20092;-79
2023/10/26 02:47:39;;;;;;;10.60;2.70;;;17.90;96.70;;;;;;5006317;28;20279;-79
2023/10/26 02:50:08;;;;;;;9.50;1.73;;;17.90;96.70;;;;;;5006427;28;20481;-79
2023/10/26 02:52:37;;;;;;;7.45;1.58;;;17.90;96.70;;;;;;5015133;28;20048;-79
2023/10/26 02:55:07;;;;;;;6.85;1.40;;;17.90;96.70;;;;;;5013579;28;20049;-79
2023/10/26 02:57:35;;;;;;;13.32;1.88;;;17.90;96.70;;;;;;5012945;28;20511;-79
2023/10/26 03:00:05;;;;;;;7.07;1.58;;;18.00;96.70;;;;;;5009274;28;20054;-79
2023/10/26 03:02:34;;;;;;;9.15;1.60;;;18.10;96.70;;;;;;5013062;28;20046;-79
2023/10/26 03:05:04;;;;;;;13.70;1.70;;;18.10;96.70;;;;;;5008768;28;20085;-79
2023/10/26 03:07:33;;;;;;;6.63;1.40;;;18.20;96.70;;;;;;5006537;28;20141;-79
2023/10/26 03:10:01;;;;;;;11.27;1.50;;;18.20;96.70;;;;;;5006260;28;20077;-80
2023/10/26 03:12:29;;;;;;;7.45;1.33;;;18.20;96.70;;;;;;5005049;28;20515;-79
2023/10/26 03:14:57;;;;;;;10.15;1.50;;;18.20;96.70;;;;;;5007167;28;20073;-79
2023/10/26 03:17:25;;;;;;;14.05;1.90;;;18.30;96.70;;;;;;5005545;28;20077;-79
2023/10/26 03:19:53;;;;;;;10.02;2.25;;;18.30;96.70;;;;;;4988821;28;20148;-79
2023/10/26 03:22:23;;;;;;;8.02;1.40;;;18.40;96.70;;;;;;5005241;28;20046;-78
2023/10/26 03:24:51;;;;;;;8.27;1.27;;;18.50;96.70;;;;;;4998491;28;20129;-79
2023/10/26 03:27:20;;;;;;;6.95;1.58;;;18.50;96.70;;;;;;5007289;28;20491;-79
2023/10/26 03:29:47;;;;;;;9.75;1.52;;;18.50;96.70;;;;;;5006145;28;21068;-78
2023/10/26 03:32:16;;;;;;;7.13;1.33;;;18.50;96.70;;;;;;5001848;28;20093;-78
2023/10/26 03:34:44;;;;;;;10.35;1.50;;;18.40;96.70;;;;;;5006223;28;20407;-78
2023/10/26 03:37:13;;;;;;;10.63;2.05;;;18.40;96.70;;;;;;5004457;28;20041;-79
2023/10/26 03:39:42;;;;;;;8.63;1.48;;;18.40;96.70;;;;;;5005171;28;21582;-79
2023/10/26 03:42:10;;;;;;;14.57;2.28;;;18.40;96.70;;;;;;5004692;28;20132;-79
2023/10/26 03:44:38;;;;;;;7.00;1.52;;;18.40;96.70;;;;;;5006014;28;20530;-80
2023/10/26 03:47:09;;;;;;;12.18;1.92;;;18.40;96.70;;;;;;5005123;28;20042;-80
2023/10/26 03:49:37;;;;;;;10.18;1.95;;;18.40;96.70;;;;;;5006047;28;20101;-79
2023/10/26 03:52:05;;;;;;;11.05;1.83;;;18.40;96.70;;;;;;4988585;28;20474;-79
2023/10/26 03:54:33;;;;;;;8.07;1.63;;;18.30;96.70;;;;;;5004578;28;20056;-77
2023/10/26 03:57:05;;;;;;;7.85;1.42;;;18.30;96.70;;;;;;5000747;28;20038;-80
2023/10/26 03:59:33;;;;;;;9.63;1.27;;;18.30;96.70;;;;;;5011335;28;20049;-80
2023/10/26 04:02:01;;;;;;;10.73;2.00;;;18.30;96.70;;;;;;5006217;28;20042;-79
2023/10/26 04:04:29;;;;;;;6.68;1.50;;;18.30;96.70;;;;;;5002988;28;20867;-81
2023/10/26 04:06:57;;;;;;;8.82;1.45;;;18.30;96.70;;;;;;5004675;28;20046;-80
2023/10/26 04:09:25;;;;;;;7.43;1.20;;;18.20;96.70;;;;;;5006431;28;20041;-80
2023/10/26 04:11:53;;;;;;;9.02;1.50;;;18.30;96.70;;;;;;5007061;28;20052;-80
2023/10/26 04:14:23;;;;;;;7.40;1.20;;;18.20;96.70;;;;;;5005368;28;20088;-80
2023/10/26 04:16:51;;;;;;;10.23;1.63;;;18.20;96.70;;;;;;5002419;28;20050;-80
2023/10/26 04:19:19;;;;;;;6.15;1.40;;;18.20;96.70;;;;;;5011500;28;20065;-80
2023/10/26 04:21:47;;;;;;;5.90;1.23;;;18.20;96.70;;;;;;5004112;28;20408;-80
2023/10/26 04:24:15;;;;;;;8.55;1.90;;;18.20;96.70;;;;;;4986114;28;20041;-80
2023/10/26 04:26:43;;;;;;;6.82;1.75;;;18.20;96.70;;;;;;5001865;28;20547;-80
2023/10/26 04:29:11;;;;;;;9.85;1.88;;;18.20;96.70;;;;;;5005797;28;20512;-80
2023/10/26 04:31:40;;;;;;;8.43;1.98;;;18.20;96.70;;;;;;5006993;28;20050;-79
2023/10/26 04:34:08;;;;;;;9.40;1.48;;;18.20;96.70;;;;;;5010615;28;20085;-80
2023/10/26 04:36:36;;;;;;;10.52;1.83;;;18.30;96.70;;;;;;5004734;28;20076;-80
2023/10/26 04:39:04;;;;;;;9.10;1.73;;;18.40;96.70;;;;;;5006005;28;20530;-80
2023/10/26 04:41:33;;;;;;;10.02;1.98;;;18.40;96.70;;;;;;5005224;28;20069;-80
2023/10/26 04:44:01;;;;;;;8.57;2.33;;;18.50;96.70;;;;;;5004117;28;20066;-80
2023/10/26 04:46:29;;;;;;;9.88;1.60;;;18.50;96.70;;;;;;5004667;28;20400;-80
2023/10/26 04:48:59;;;;;;;9.95;1.98;;;18.50;96.70;;;;;;5003597;28;20048;-81
2023/10/26 04:51:28;;;;;;;12.85;2.03;;;18.50;96.70;;;;;;5004964;28;20053;-79
2023/10/26 04:53:56;;;;;;;8.32;1.92;;;18.60;96.70;;;;;;5004395;28;20049;-80
2023/10/26 04:56:24;;;;;;;8.07;1.67;;;18.60;96.70;;;;;;4983535;28;20073;-80
2023/10/26 04:58:52;;;;;;;12.05;1.60;;;18.60;96.70;;;;;;5009274;28;20132;-80
2023/10/26 05:01:20;;;;;;;8.45;2.08;;;18.60;96.70;;;;;;5009440;28;20069;-79
2023/10/26 05:03:48;;;;;;;12.55;1.73;;;18.60;96.70;;;;;;5009940;28;20034;-80
2023/10/26 05:06:18;;;;;;;10.02;1.75;;;18.60;96.70;;;;;;5012573;28;20530;-80
2023/10/26 05:08:46;;;;;;;10.50;2.03;;;18.60;96.70;;;;;;5009383;28;20116;-80
2023/10/26 05:11:15;;;;;;;8.07;1.48;;;18.60;96.70;;;;;;4997487;28;20050;-80
2023/10/26 05:13:43;;;;;;;9.07;1.65;;;18.50;96.70;;;;;;5003923;28;20139;-80
2023/10/26 05:16:12;;;;;;;17.33;2.28;;;18.50;96.70;;;;;;5004659;28;20052;-80
2023/10/26 05:18:40;;;;;;;7.28;1.63;;;18.50;96.70;;;;;;5014108;28;20136;-80
2023/10/26 05:21:08;;;;;;;9.13;1.63;;;18.50;96.70;;;;;;5010835;28;20068;-80
2023/10/26 05:23:38;;;;;;;8.48;1.58;;;18.50;96.70;;;;;;5003681;28;20042;-80
2023/10/26 05:26:06;;;;;;;9.38;1.58;;;18.50;96.70;;;;;;5003996;28;20045;-80
2023/10/26 05:28:34;;;;;;;7.95;1.60;;;18.50;96.70;;;;;;5002562;28;20578;-80
2023/10/26 05:31:02;;;;;;;8.60;1.20;;;18.60;96.70;;;;;;4999610;28;20064;-80
2023/10/26 05:33:30;;;;;;;12.15;1.60;;;18.50;96.70;;;;;;5002557;28;20518;-80
2023/10/26 05:36:01;;;;;;;11.13;2.15;;;18.50;96.70;;;;;;5005084;28;20049;-80
2023/10/26 05:38:29;;;;;;;9.55;1.73;;;18.60;96.70;;;;;;5003288;28;20046;-80
2023/10/26 05:40:58;;;;;;;8.07;1.60;;;18.60;96.70;;;;;;5002037;28;20054;-80
2023/10/26 05:43:26;;;;;;;11.55;1.58;;;18.60;96.70;;;;;;5004566;28;20046;-80
2023/10/26 05:46:02;;;;;;;9.23;1.75;;;18.60;96.70;;;;;;5008186;28;20491;-80
2023/10/26 05:48:31;;;;;;;8.65;1.48;;;18.60;96.70;;;;;;5018388;28;20046;-80
2023/10/26 05:51:00;;;;;;;11.90;2.00;;;18.70;96.70;;;;;;5004998;28;20050;-78
2023/10/26 05:53:28;;;;;;;8.63;2.10;;;18.60;96.70;;;;;;5007108;28;20050;-88
2023/10/26 05:55:58;;;;;;;10.88;2.38;;;18.60;96.70;;;;;;5007380;28;20044;-84
2023/10/26 05:58:27;;;;;;;8.23;1.75;;;18.60;96.70;;;;;;5008006;28;20049;-88
2023/10/26 06:00:55;;;;;;;10.65;1.50;;;18.60;96.70;;;;;;5007632;28;20042;-88
2023/10/26 06:03:23;;;;;;;6.00;1.13;;;18.60;96.70;;;;;;5004856;28;20072;-91
2023/10/26 06:05:56;;;;;;;6.70;1.35;;;18.50;96.70;;;;;;5008167;28;20049;-90
2023/10/26 06:08:25;;;;;;;7.30;1.52;;;18.60;96.70;;;;;;5007790;28;20649;-88
2023/10/26 06:10:53;;;;;;;7.97;1.65;;;18.60;96.70;;;;;;5011423;28;20048;-91
2023/10/26 06:13:23;;;;;;;6.30;1.42;;;18.60;96.70;;;;;;5007539;28;20076;-88
2023/10/26 06:15:51;;;;;;;8.13;1.40;;;18.60;96.70;;;;;;5008406;28;20064;-89
2023/10/26 06:18:19;;;;;;;9.90;1.60;;;18.60;96.70;;;;;;5007238;28;20046;-92
2023/10/26 06:20:57;;;;;;;7.07;1.40;;;18.60;96.70;;;;;;5007645;28;20045;-88
2023/10/26 06:23:27;;;;;;;6.35;1.60;;;18.60;96.70;;;;;;5006788;28;20076;-87
2023/10/26 06:26:00;;;;;;;11.85;2.08;;;18.60;96.70;;;;;;5006538;28;20125;-84
2023/10/26 06:28:30;;;;;;;6.82;1.23;;;18.60;96.70;;;;;;5005464;28;20085;-85
2023/10/26 06:31:08;;;;;;;14.27;2.00;;;18.60;96.70;;;;;;4987661;28;20116;-84
2023/10/26 06:33:37;;;;;;;8.18;1.38;;;18.60;96.70;;;;;;4990232;28;20058;-83
2023/10/26 06:36:06;;;;;;;9.18;2.10;;;18.70;96.70;;;;;;5008056;28;20552;-84
2023/10/26 06:38:34;;;;;;;4.57;0.98;;;18.70;96.70;;;;;;5006589;28;20049;-84
2023/10/26 06:41:02;;;;;;;7.22;1.77;;;18.70;96.70;;;;;;5007767;28;20125;-84
2023/10/26 06:43:32;;;;;;;6.75;1.20;;;18.80;96.70;;;;;;5010200;28;20116;-86
2023/10/26 06:46:00;;;;;;;8.93;1.27;;;18.90;96.70;;;;;;5006277;28;20074;-84
2023/10/26 06:48:28;;;;;;;6.13;0.85;;;18.90;96.70;;;;;;5006246;28;20056;-84
2023/10/26 06:50:58;;;;;;;6.88;1.40;;;19.00;96.70;;;;;;4997425;28;20104;-83
2023/10/26 06:53:27;;;;;;;6.50;1.38;;;19.00;96.70;;;;;;5010472;28;20510;-85
2023/10/26 06:55:55;;;;;;;9.75;1.65;;;19.00;96.70;;;;;;4997558;28;20049;-83
2023/10/26 06:58:23;;;;;;;11.18;1.90;;;19.00;96.70;;;;;;5011291;28;20046;-83
2023/10/26 07:00:53;;;;;;;9.93;1.95;;;19.00;96.70;;;;;;5010251;28;20065;-84
2023/10/26 07:03:21;;;;;;;10.43;2.03;;;19.10;96.70;;;;;;5013442;28;20136;-84
2023/10/26 07:05:49;;;;;;;8.13;1.90;;;19.10;96.70;;;;;;5010441;28;20066;-86
2023/10/26 07:08:17;;;;;;;5.68;1.30;;;19.10;96.70;;;;;;5011188;28;20045;-84
2023/10/26 07:10:47;;;;;;;8.40;2.00;;;19.10;96.70;;;;;;5001255;28;20487;-83
2023/10/26 07:13:16;;;;;;;9.20;2.20;;;19.20;96.70;;;;;;5008437;28;20056;-83
2023/10/26 07:15:45;;;;;;;9.95;3.65;;;19.20;96.70;;;;;;5008574;28;20574;-83
2023/10/26 07:18:18;;;;;;;9.85;3.05;;;19.20;96.70;;;;;;5009523;28;20125;-83
2023/10/26 07:20:48;;;;;;;9.55;3.08;;;19.20;96.70;;;;;;5018618;28;20045;-83
2023/10/26 07:23:18;;;;;;;6.07;1.70;;;19.20;96.70;;;;;;5025361;28;20148;-83
2023/10/26 07:25:46;;;;;;;6.07;1.77;;;19.20;96.70;;;;;;4996400;28;20077;-85
2023/10/26 07:28:16;;;;;;;7.78;3.00;;;19.20;96.70;;;;;;5022403;28;20185;-84
2023/10/26 07:30:50;;;;;;;5.85;1.67;;;19.20;96.70;;;;;;5009508;28;20050;-84
2023/10/26 07:33:20;;;;;;;6.88;1.80;;;19.30;96.70;;;;;;5009491;28;20133;-84
2023/10/26 07:35:50;;;;;;;5.97;1.65;;;19.20;96.70;;;;;;5008882;28;20483;-83
2023/10/26 07:38:18;;;;;;;6.25;1.60;;;19.20;96.70;;;;;;5009245;28;20057;-83
2023/10/26 07:41:05;;;;;;;4.85;1.33;;;19.20;96.70;;;;;;5008910;28;20052;-84
2023/10/26 07:43:39;;;;;;;7.57;1.30;;;19.20;96.70;;;;;;5008830;28;20045;-83
2023/10/26 07:46:07;;;;;;;6.68;1.30;;;19.10;96.70;;;;;;5008617;28;20064;-84
2023/10/26 07:48:37;;;;;;;9.50;1.83;;;19.10;96.70;;;;;;5008814;28;20038;-84
2023/10/26 07:51:05;;;;;;;9.27;2.35;;;19.20;96.70;;;;;;5010138;28;20100;-82
2023/10/26 07:53:33;;;;;;;14.93;2.45;;;19.30;96.70;;;;;;4992217;28;20034;-83
2023/10/26 07:56:02;;;;;;;10.80;2.78;;;19.30;96.70;;;;;;5008415;28;20060;-84
2023/10/26 07:58:30;;;;;;;10.15;2.25;;;19.30;96.70;;;;;;5008681;28;20144;-84
2023/10/26 08:00:59;;;;;;;8.23;2.35;;;19.40;96.70;;;;;;5008582;28;20072;-83
2023/10/26 08:03:27;;;;;;;9.57;2.70;;;19.40;96.70;;;;;;5009095;28;20046;-83
2023/10/26 08:06:00;;;;;;;8.75;2.60;;;19.40;96.70;;;;;;5007939;28;20136;-84
2023/10/26 08:08:28;;;;;;;10.00;3.00;;;19.50;96.70;;;;;;5007232;28;20084;-84
2023/10/26 08:10:56;;;;;;;12.00;3.03;;;19.60;96.70;;;;;;5008320;28;20046;-83
2023/10/26 08:13:24;;;;;;;11.18;3.10;;;19.60;96.70;;;;;;5008612;28;20053;-83
2023/10/26 08:15:53;;;;;;;7.32;2.50;;;19.60;96.70;;;;;;5008182;28;20050;-83
2023/10/26 08:18:42;;;;;;;8.15;2.83;;;19.60;96.70;;;;;;5007823;28;20050;-85
2023/10/26 08:21:13;;;;;;;14.70;3.55;;;19.60;96.70;;;;;;5008388;28;20049;-83
2023/10/26 08:23:41;;;;;;;10.93;2.80;;;19.50;96.70;;;;;;5016497;28;20045;-84
2023/10/26 08:26:10;;;;;;;9.82;2.38;;;19.50;96.70;;;;;;5008054;28;20496;-84
2023/10/26 08:28:38;;;;;;;5.50;1.35;;;19.40;96.70;;;;;;5009097;28;20038;-83
2023/10/26 08:31:07;;;;;;;8.02;1.60;;;19.40;96.70;;;;;;5007811;28;20050;-83
2023/10/26 08:33:35;;;;;;;4.85;1.30;;;19.30;96.70;;;;;;5009329;28;20053;-84
2023/10/26 08:36:04;;;;;;;5.88;1.30;;;19.20;96.70;;;;;;5007678;28;20073;-83
2023/10/26 08:38:34;;;;;;;4.68;1.20;;;19.20;96.70;;;;;;5007559;28;20046;-83
2023/10/26 08:41:02;;;;;;;6.70;1.75;;;19.20;96.70;;;;;;5007317;28;20058;-84
2023/10/26 08:43:33;;;;;;;5.13;1.30;;;19.10;96.70;;;;;;5006365;28;20038;-83
2023/10/26 08:46:02;;;;;;;4.25;0.93;;;19.10;96.70;;;;;;5023107;28;20054;-85
2023/10/26 08:48:34;;;;;;;4.50;0.95;;;19.10;96.70;;;;;;4990236;28;20066;-84
2023/10/26 08:51:03;;;;;;;4.30;0.93;;;19.10;96.70;;;;;;5008548;28;20057;-86
2023/10/26 08:53:34;;;;;;;5.88;1.52;;;19.10;96.70;;;;;;5009010;28;20491;-84
2023/10/26 08:56:03;;;;;;;2.97;0.75;;;19.10;96.70;;;;;;5016778;28;20602;-85
2023/10/26 08:58:31;;;;;;;8.10;1.50;;;19.10;96.70;;;;;;5008314;28;20104;-84
2023/10/26 09:01:01;;;;;;;4.55;1.65;;;19.10;96.70;;;;;;4998879;28;20045;-82
2023/10/26 09:03:29;;;;;;;5.45;1.40;;;19.20;96.70;;;;;;5014725;28;20053;-82
2023/10/26 09:05:57;;;;;;;7.40;1.70;;;19.20;96.70;;;;;;5007502;28;20069;-82
2023/10/26 09:08:30;;;;;;;5.40;1.23;;;19.30;96.70;;;;;;5007103;28;20073;-83
2023/10/26 09:11:01;;;;;;;6.75;1.40;;;19.30;96.70;;;;;;5007984;28;20333;-82
2023/10/26 09:13:30;;;;;;;5.28;1.10;;;19.40;96.70;;;;;;5007100;28;20933;-83
2023/10/26 09:15:59;;;;;;;4.82;1.40;;;19.50;96.70;;;;;;5008347;28;20041;-84
2023/10/26 09:18:28;;;;;;;6.18;1.20;;;19.60;96.70;;;;;;5007334;28;20054;-87
2023/10/26 09:21:03;;;;;;;2.78;1.02;;;19.60;96.70;;;;;;5007467;28;20128;-84
2023/10/26 09:23:33;;;;;;;6.85;1.25;;;19.70;96.70;;;;;;5007386;28;20046;-84
2023/10/26 09:26:04;;;;;;;4.35;1.00;;;19.70;96.70;;;;;;5005723;28;20048;-83
2023/10/26 09:28:48;;;;;;;5.95;1.10;;;19.80;96.70;;;;;;5008186;28;20073;-83
2023/10/26 09:31:17;;;;;;;5.68;1.13;;;19.90;96.70;;;;;;5007232;28;20057;-83
2023/10/26 09:33:46;;;;;;;7.43;1.27;;;20.00;96.70;;;;;;5006755;28;20168;-82
2023/10/26 09:36:15;;;;;;;6.93;1.40;;;20.00;96.70;;;;;;5000105;28;20582;-83
2023/10/26 09:38:43;;;;;;;8.95;2.63;;;20.00;96.70;;;;;;5007044;28;20101;-83
2023/10/26 09:41:15;;;;;;;7.25;2.08;;;20.00;96.70;;;;;;5005913;28;20053;-83
2023/10/26 09:43:44;;;;;;;9.43;2.88;;;20.00;96.70;;;;;;5004953;28;20119;-84
2023/10/26 09:46:12;;;;;;;11.52;3.35;;;20.00;96.70;;;;;;5016080;28;20045;-84
2023/10/26 09:48:40;;;;;;;11.18;2.83;;;20.00;96.70;;;;;;5006932;28;20149;-84
2023/10/26 09:51:11;;;;;;;8.40;2.05;;;20.00;96.70;;;;;;5007162;28;20130;-83
2023/10/26 09:53:41;;;;;;;8.38;2.08;;;20.00;96.70;;;;;;5008678;28;20097;-84
2023/10/26 09:56:20;;;;;;;4.30;1.75;;;20.00;96.70;;;;;;4991175;28;20145;-84
2023/10/26 09:58:48;;;;;;;8.23;2.85;;;20.10;96.70;;;;;;5015568;28;20493;-83
2023/10/26 10:01:42;;;;;;;6.20;2.08;;;20.10;96.70;;;;;;5006921;28;20054;-83
2023/10/26 10:04:11;;;;;;;8.65;1.92;;;20.20;96.70;;;;;;5007304;28;20554;-84
2023/10/26 10:06:51;;;;;;;6.78;2.13;;;20.20;96.70;;;;;;5007517;28;20052;-83
2023/10/26 10:09:21;;;;;;;10.25;2.03;;;20.30;96.70;;;;;;5006894;28;20053;-83
2023/10/26 10:12:26;;;;;;;10.18;1.98;;;20.20;96.70;;;;;;5006699;28;20056;-84
2023/10/26 10:15:01;;;;;;;5.60;1.50;;;20.20;96.70;;;;;;4997137;28;20050;-83
2023/10/26 10:18:13;;;;;;;8.38;1.90;;;20.20;96.70;;;;;;5006573;28;20127;-84
2023/10/26 10:20:41;;;;;;;5.30;1.73;;;20.10;96.70;;;;;;4999352;28;20788;-84
2023/10/26 10:23:29;;;;;;;6.18;1.77;;;20.10;96.70;;;;;;5006755;28;20416;-83
2023/10/26 10:25:59;;;;;;;4.78;1.40;;;20.00;96.70;;;;;;5006237;28;20390;-84
2023/10/26 10:28:48;;;;;;;3.83;1.05;;;20.00;96.70;;;;;;5006593;28;20080;-85
2023/10/26 10:31:40;;;;;;;5.80;1.25;;;20.10;96.70;;;;;;5007735;28;20057;-84
2023/10/26 10:34:10;;;;;;;6.85;1.23;;;20.10;96.70;;;;;;5009548;28;20053;-84
2023/10/26 10:37:11;;;;;;;5.00;0.90;;;20.20;96.70;;;;;;5002289;28;20068;-84
2023/10/26 10:40:10;;;;;;;4.95;1.00;;;20.20;96.70;;;;;;5010533;28;20045;-84
2023/10/26 10:42:39;;;;;;;3.70;0.98;;;20.20;96.70;;;;;;5004756;28;20492;-84
2023/10/26 10:45:11;;;;;;;5.75;1.38;;;20.20;96.70;;;;;;4993841;28;20523;-84
2023/10/26 10:47:42;;;;;;;7.32;1.55;;;20.30;96.70;;;;;;4993466;28;20494;-85
2023/10/26 10:50:18;;;;;;;8.23;1.77;;;20.40;96.70;;;;;;5001821;28;20058;-77
2023/10/26 10:52:47;;;;;;;9.55;2.15;;;20.40;96.70;;;;;;5008079;28;20057;-82
2023/10/26 10:55:24;;;;;;;5.05;1.40;;;20.50;96.70;;;;;;5008203;28;20523;-81
2023/10/26 10:57:53;;;;;;;;;;;20.50;96.70;;;;;;5008625;28;20053;-80
2023/10/26 11:00:22;;;;;;;4.50;1.20;;;20.60;96.70;;;;;;5008376;28;20379;-82
2023/10/26 11:02:58;;;;;;;6.03;1.58;;;20.60;96.70;;;;;;5007954;28;20046;-80
2023/10/26 11:05:36;;;;;;;6.57;1.50;;;20.60;96.70;;;;;;5002523;28;20108;-86
2023/10/26 11:08:05;;;;;;;5.05;1.20;;;20.50;96.70;;;;;;5002746;28;20046;-86
2023/10/26 11:10:34;;;;;;;2.78;1.08;;;20.50;96.70;;;;;;5013668;28;20064;-83
2023/10/26 11:13:03;;;;;;;3.25;1.17;;;20.50;96.70;;;;;;5010011;28;20061;-84
2023/10/26 11:15:32;;;;;;;6.18;1.77;;;20.50;96.70;;;;;;5011838;28;20107;-85
2023/10/26 11:18:03;;;;;;;6.80;1.38;;;20.40;96.70;;;;;;5009712;28;20124;-85
2023/10/26 11:20:39;;;;;;;9.18;1.55;;;20.40;96.70;;;;;;5004112;28;20045;-84
2023/10/26 11:23:09;;;;;;;5.65;1.08;;;20.40;96.70;;;;;;5009433;28;20508;-83
2023/10/26 11:25:37;;;;;;;4.57;1.10;;;20.50;96.70;;;;;;5005688;28;20054;-84
2023/10/26 11:28:06;;;;;;;4.30;1.48;;;20.60;96.70;;;;;;5004879;28;20447;-85
2023/10/26 11:30:46;;;;;;;5.13;1.85;;;20.60;96.70;;;;;;5009332;28;20411;-85
2023/10/26 11:33:32;;;;;;;7.15;2.83;;;20.60;96.70;;;;;;5025423;28;20695;-84
2023/10/26 11:36:00;;;;;;;9.10;1.80;;;20.60;96.70;;;;;;5008776;28;20061;-84
2023/10/26 11:38:31;;;;;;;6.25;2.13;;;20.60;96.70;;;;;;5009466;28;20042;-85
2023/10/26 11:40:59;;;;;;;6.75;2.10;;;20.50;96.70;;;;;;5008616;28;20053;-84
2023/10/26 11:43:35;;;;;;;5.97;1.63;;;20.50;96.70;;;;;;5009063;28;20052;-86
2023/10/26 11:46:03;;;;;;;2.22;0.85;;;20.40;96.70;;;;;;5017901;28;20044;-82
2023/10/26 11:48:34;;;;;;;5.05;1.00;;;20.30;96.70;;;;;;5008420;28;20049;-83
2023/10/26 11:51:05;;;;;;;6.20;2.08;;;20.20;96.70;;;;;;5008751;28;20046;-83
2023/10/26 11:53:35;;;;;;;3.92;1.45;;;20.20;96.70;;;;;;5012206;28;20050;-83
2023/10/26 11:56:05;;;;;;;2.63;1.15;;;20.10;96.70;;;;;;5007887;28;20671;-83
2023/10/26 11:58:36;;;;;;;4.22;1.02;;;20.10;96.70;;;;;;5008523;28;20090;-82
2023/10/26 12:01:05;;;;;;;3.75;1.67;;;20.10;96.70;;;;;;5009884;28;20129;-83
2023/10/26 12:03:35;;;;;;;3.80;1.00;;;20.20;96.70;;;;;;5008729;28;20132;-86
2023/10/26 12:06:04;;;;;;;3.15;0.95;;;20.20;96.70;;;;;;5004839;28;20049;-86
2023/10/26 12:08:32;;;;;;;6.13;1.85;;;20.20;96.70;;;;;;5008398;28;20968;-84
2023/10/26 12:11:00;;;;;;;3.45;1.40;;;20.20;96.70;;;;;;5008427;28;20053;-86
2023/10/26 12:13:29;;;;;;;6.68;1.70;;;20.20;96.70;;;;;;5009630;28;20064;-87
2023/10/26 12:15:57;;;;;;;4.70;1.30;;;20.10;96.70;;;;;;5010374;28;20452;-86
2023/10/26 12:18:25;;;;;;;8.25;2.53;;;19.90;96.70;;;;;;5008804;28;20046;-86
2023/10/26 12:20:55;;;;;;;6.95;2.63;;;19.90;96.70;;;;;;4993934;28;20500;-85
2023/10/26 12:23:23;;;;;;;6.90;2.55;;;19.80;96.70;;;;;;5008313;28;20049;-85
2023/10/26 12:25:51;;;;;;;8.00;2.35;;;19.80;96.70;;;;;;4991637;28;20073;-88
2023/10/26 12:28:19;;;;;;;7.95;2.53;;;19.90;96.70;;;;;;5008701;28;20495;-86
2023/10/26 12:30:53;;;;;;;9.35;2.58;;;19.90;96.70;;;;;;5008621;28;20069;-86
2023/10/26 12:33:22;;;;;;;6.43;2.08;;;19.90;96.70;;;;;;5010332;28;20062;-86
2023/10/26 12:35:50;;;;;;;5.10;1.42;;;19.90;96.70;;;;;;5009640;28;20053;-87
2023/10/26 12:38:22;;;;;;;4.10;1.40;;;20.00;96.70;;;;;;5009012;28;20061;-85
2023/10/26 12:40:50;;;;;;;5.18;1.10;;;20.10;96.70;;;;;;5015949;28;20518;-84
2023/10/26 12:43:18;;;;;;;5.15;1.38;;;20.20;96.70;;;;;;5006088;28;20053;-85
2023/10/26 12:45:46;;;;;;;6.38;2.47;;;20.20;96.70;;;;;;5009615;28;20130;-85
2023/10/26 12:48:14;;;;;;;6.85;1.30;;;20.30;96.70;;;;;;5007653;28;20045;-85
2023/10/26 12:50:43;;;;;;;5.30;1.52;;;20.30;96.70;;;;;;5007371;28;20054;-87
2023/10/26 12:53:12;;;;;;;4.75;1.35;;;20.30;96.70;;;;;;5008500;28;20038;-85
2023/10/26 12:55:42;;;;;;;9.48;2.30;;;20.30;96.70;;;;;;5007126;28;20057;-87
2023/10/26 12:58:10;;;;;;;6.30;2.28;;;20.30;96.70;;;;;;5007684;28;20108;-85
2023/10/26 13:00:38;;;;;;;7.22;2.17;;;20.30;96.70;;;;;;5007279;28;20141;-86